createdAt,value
2023-01-25T00:01:27.802Z,46.00
2023-01-25T00:03:54.255Z,46.28
2023-01-25T00:06:20.606Z,45.98
2023-01-25T00:08:50.216Z,46.17
2023-01-25T00:11:17.103Z,45.92
2023-01-25T00:13:43.574Z,46.15
2023-01-25T00:16:09.963Z,45.96
2023-01-25T00:18:36.322Z,45.98
2023-01-25T00:21:15.211Z,46.09
2023-01-25T00:23:41.544Z,46.07
2023-01-25T00:26:07.899Z,45.89
2023-01-25T00:28:34.221Z,45.99
2023-01-25T00:31:01.051Z,46.08
2023-01-25T00:33:27.323Z,45.89
2023-01-25T00:35:56.453Z,45.93
2023-01-25T00:38:27.471Z,46.07
2023-01-25T00:40:53.835Z,46.09
2023-01-25T00:43:20.154Z,46.24
2023-01-25T00:45:46.585Z,46.03
2023-01-25T00:48:12.923Z,46.27
2023-01-25T00:50:39.328Z,46.16
2023-01-25T00:53:05.667Z,46.16
2023-01-25T00:55:32.045Z,46.12
2023-01-25T00:57:58.374Z,46.28
2023-01-25T01:00:24.846Z,45.95
2023-01-25T01:02:51.201Z,46.08
2023-01-25T01:05:17.621Z,46.12
2023-01-25T01:07:44.002Z,46.10
2023-01-25T01:10:12.078Z,46.13
2023-01-25T01:12:38.408Z,46.13
2023-01-25T01:15:07.577Z,46.04
2023-01-25T01:17:34.584Z,46.13
2023-01-25T01:20:00.909Z,46.04
2023-01-25T01:22:27.267Z,46.18
2023-01-25T01:24:53.617Z,46.15
2023-01-25T01:27:19.972Z,46.26
2023-01-25T01:29:46.310Z,46.17
2023-01-25T01:32:12.868Z,46.11
2023-01-25T01:34:39.284Z,46.22
2023-01-25T01:37:05.612Z,46.26
2023-01-25T01:39:31.975Z,46.06
2023-01-25T01:41:58.311Z,46.04
2023-01-25T01:44:43.453Z,46.16
2023-01-25T01:47:12.022Z,46.00
2023-01-25T01:49:38.355Z,46.02
2023-01-25T01:52:12.626Z,46.05
2023-01-25T01:54:44.063Z,45.96
2023-01-25T01:57:32.315Z,46.08
2023-01-25T02:00:00.157Z,46.00
2023-01-25T02:02:26.592Z,46.02
2023-01-25T02:04:53.383Z,46.15
2023-01-25T02:07:21.464Z,45.95
2023-01-25T02:09:48.112Z,46.09
2023-01-25T02:12:14.451Z,46.22
2023-01-25T02:14:41.679Z,46.27
2023-01-25T02:17:09.811Z,46.05
2023-01-25T02:20:08.532Z,46.07
2023-01-25T02:22:44.371Z,45.95
2023-01-25T02:25:11.007Z,45.91
2023-01-25T02:27:38.663Z,46.12
2023-01-25T02:30:05.262Z,46.21
2023-01-25T02:32:31.961Z,46.24
2023-01-25T02:34:58.369Z,46.17
2023-01-25T02:37:24.705Z,46.08
2023-01-25T02:39:51.249Z,46.22
2023-01-25T02:42:17.612Z,46.15
2023-01-25T02:44:44.334Z,46.09
2023-01-25T02:47:10.682Z,46.20
2023-01-25T02:49:38.605Z,46.17
2023-01-25T02:52:07.133Z,46.13
2023-01-25T02:54:33.535Z,46.25
2023-01-25T02:57:03.333Z,46.26
2023-01-25T02:59:38.816Z,46.20
2023-01-25T03:02:05.217Z,46.00
2023-01-25T03:04:31.660Z,46.07
2023-01-25T03:06:58.457Z,45.94
2023-01-25T03:09:27.158Z,46.13
2023-01-25T03:11:53.553Z,45.96
2023-01-25T03:14:22.121Z,45.94
2023-01-25T03:16:49.238Z,46.03
2023-01-25T03:19:18.149Z,46.05
2023-01-25T03:21:44.539Z,46.13
2023-01-25T03:24:11.348Z,46.05
2023-01-25T03:27:01.863Z,46.12
2023-01-25T03:29:36.353Z,46.09
2023-01-25T03:32:06.062Z,46.09
2023-01-25T03:34:32.495Z,46.24
2023-01-25T03:36:59.678Z,46.24
2023-01-25T03:39:26.065Z,46.34
2023-01-25T03:41:52.460Z,46.32
2023-01-25T03:44:19.000Z,46.18
2023-01-25T03:46:46.630Z,46.33
2023-01-25T03:49:13.153Z,46.01
2023-01-25T03:51:39.793Z,46.07
2023-01-25T03:54:08.335Z,46.20
2023-01-25T03:56:35.924Z,46.02
2023-01-25T03:59:10.210Z,46.00
2023-01-25T04:01:36.761Z,46.01
2023-01-25T04:04:03.099Z,45.99
2023-01-25T04:06:29.568Z,45.90
2023-01-25T04:08:56.398Z,45.97
2023-01-25T04:11:24.958Z,45.91
2023-01-25T04:13:51.375Z,45.99
2023-01-25T04:16:20.272Z,45.96
2023-01-25T04:19:00.994Z,45.95
2023-01-25T04:21:29.159Z,46.03
2023-01-25T04:23:55.781Z,46.19
2023-01-25T04:26:22.235Z,46.18
2023-01-25T04:28:54.074Z,46.06
2023-01-25T04:31:20.745Z,46.01
2023-01-25T04:33:49.492Z,46.07
2023-01-25T04:36:18.494Z,46.05
2023-01-25T04:38:44.866Z,46.03
2023-01-25T04:41:11.673Z,45.98
2023-01-25T04:43:38.281Z,46.05
2023-01-25T04:46:09.228Z,46.14
2023-01-25T04:48:35.609Z,46.00
2023-01-25T04:51:04.933Z,45.89
2023-01-25T04:53:32.635Z,46.09
2023-01-25T04:56:00.966Z,45.97
2023-01-25T04:58:31.280Z,46.06
2023-01-25T05:01:01.542Z,46.12
2023-01-25T05:03:28.301Z,46.22
2023-01-25T05:05:54.665Z,46.08
2023-01-25T05:08:23.738Z,46.01
2023-01-25T05:10:52.700Z,46.01
2023-01-25T05:13:37.717Z,45.96
2023-01-25T05:16:13.303Z,45.93
2023-01-25T05:18:48.490Z,45.89
2023-01-25T05:21:38.611Z,45.94
2023-01-25T05:24:05.263Z,46.20
2023-01-25T05:26:51.851Z,45.98
2023-01-25T05:29:18.305Z,46.06
2023-01-25T05:31:56.292Z,46.11
2023-01-25T05:34:22.755Z,46.00
2023-01-25T05:36:49.280Z,46.11
2023-01-25T05:39:16.246Z,46.05
2023-01-25T05:41:44.224Z,46.04
2023-01-25T05:44:11.368Z,45.91
2023-01-25T05:46:40.181Z,45.93
2023-01-25T05:49:06.879Z,45.96
2023-01-25T05:51:33.568Z,46.13
2023-01-25T05:54:01.383Z,46.09
2023-01-25T05:56:28.027Z,45.93
2023-01-25T05:58:54.662Z,46.08
2023-01-25T06:01:21.383Z,45.99
2023-01-25T06:03:52.459Z,45.99
2023-01-25T06:06:18.872Z,45.96
2023-01-25T06:08:45.712Z,45.93
2023-01-25T06:11:13.144Z,45.96
2023-01-25T06:13:43.176Z,46.06
2023-01-25T06:16:09.607Z,45.88
2023-01-25T06:18:56.944Z,43.32
2023-01-25T06:21:44.740Z,42.04
2023-01-25T06:24:11.181Z,41.34
2023-01-25T06:26:37.594Z,42.33
2023-01-25T06:29:34.939Z,43.30
2023-01-25T06:32:02.518Z,43.83
2023-01-25T06:34:29.046Z,43.82
2023-01-25T06:36:55.547Z,43.99
2023-01-25T06:39:21.880Z,44.28
2023-01-25T06:41:48.199Z,44.16
2023-01-25T06:44:14.533Z,44.15
2023-01-25T06:46:41.052Z,44.80
2023-01-25T06:49:07.398Z,44.80
2023-01-25T06:51:33.720Z,41.94
2023-01-25T06:57:18.072Z,42.92
2023-01-25T06:59:44.403Z,41.73
2023-01-25T07:02:14.280Z,40.73
2023-01-25T07:04:40.627Z,39.62
2023-01-25T07:07:09.777Z,39.42
2023-01-25T07:09:36.136Z,40.66
2023-01-25T07:12:04.615Z,42.38
2023-01-25T07:14:31.183Z,42.55
2023-01-25T07:16:57.560Z,42.88
2023-01-25T07:19:23.916Z,42.67
2023-01-25T07:21:50.286Z,42.58
2023-01-25T07:24:17.236Z,42.56
2023-01-25T07:26:43.634Z,42.69
2023-01-25T07:29:13.815Z,42.70
2023-01-25T07:31:40.210Z,42.84
2023-01-25T07:34:07.122Z,43.01
2023-01-25T07:36:33.649Z,42.81
2023-01-25T07:39:00.007Z,42.90
2023-01-25T07:41:26.382Z,42.78
2023-01-25T07:43:52.719Z,43.33
2023-01-25T07:46:29.212Z,43.21
2023-01-25T07:48:55.768Z,43.22
2023-01-25T07:51:22.847Z,43.36
2023-01-25T07:53:52.161Z,43.40
2023-01-25T07:56:19.311Z,43.64
2023-01-25T07:58:45.776Z,43.83
2023-01-25T08:01:16.143Z,43.56
2023-01-25T08:03:43.953Z,43.22
2023-01-25T08:06:10.980Z,43.41
2023-01-25T08:08:38.748Z,43.50
2023-01-25T08:11:09.242Z,43.53
2023-01-25T08:13:35.592Z,43.71
2023-01-25T08:16:01.995Z,43.70
2023-01-25T08:18:28.438Z,43.89
2023-01-25T08:20:57.315Z,43.44
2023-01-25T08:23:24.827Z,44.09
2023-01-25T08:25:51.207Z,44.48
2023-01-25T08:28:17.576Z,44.54
2023-01-25T08:30:56.497Z,44.77
2023-01-25T08:33:23.789Z,44.56
2023-01-25T08:35:59.165Z,44.78
2023-01-25T08:38:25.503Z,44.75
2023-01-25T08:40:51.953Z,44.77
2023-01-25T08:43:18.409Z,44.93
2023-01-25T08:45:44.970Z,44.96
2023-01-25T08:48:15.439Z,44.82
2023-01-25T08:50:47.735Z,44.93
2023-01-25T08:53:14.084Z,45.10
2023-01-25T08:55:42.818Z,44.83
2023-01-25T08:58:13.149Z,44.97
2023-01-25T09:00:39.585Z,44.91
2023-01-25T09:03:06.635Z,45.19
2023-01-25T09:05:39.138Z,45.05
2023-01-25T09:08:06.905Z,45.04
2023-01-25T09:10:37.576Z,45.23
2023-01-25T09:13:03.915Z,45.03
2023-01-25T09:15:30.246Z,45.10
2023-01-25T09:17:56.649Z,44.96
2023-01-25T09:20:23.061Z,44.91
2023-01-25T09:22:49.389Z,45.11
2023-01-25T09:25:15.763Z,44.98
2023-01-25T09:27:42.108Z,45.01
2023-01-25T09:30:13.449Z,45.72
2023-01-25T09:32:43.388Z,45.18
2023-01-25T09:35:09.789Z,44.82
2023-01-25T09:37:36.165Z,44.67
2023-01-25T09:40:03.892Z,44.65
2023-01-25T09:42:32.609Z,44.67
2023-01-25T09:45:12.695Z,44.22
2023-01-25T09:47:49.920Z,44.30
2023-01-25T09:50:33.151Z,44.18
2023-01-25T09:53:04.643Z,44.71
2023-01-25T09:55:30.985Z,44.49
2023-01-25T09:58:00.172Z,44.58
2023-01-25T10:00:32.140Z,44.67
2023-01-25T10:03:07.643Z,44.30
2023-01-25T10:05:37.133Z,44.29
2023-01-25T10:08:08.483Z,44.73
2023-01-25T10:10:42.132Z,44.92
2023-01-25T10:13:11.505Z,44.82
2023-01-25T10:15:39.484Z,44.14
2023-01-25T10:18:21.042Z,44.08
2023-01-25T10:20:49.390Z,44.01
2023-01-25T10:23:24.808Z,44.26
2023-01-25T10:25:56.869Z,44.26
2023-01-25T10:28:25.867Z,44.37
2023-01-25T10:30:56.930Z,44.90
2023-01-25T10:33:23.331Z,44.79
2023-01-25T10:35:49.823Z,44.78
2023-01-25T10:38:20.595Z,44.30
2023-01-25T10:40:48.703Z,44.23
2023-01-25T10:43:18.567Z,43.91
2023-01-25T10:45:44.908Z,43.99
2023-01-25T10:48:12.581Z,43.99
2023-01-25T10:50:38.910Z,44.02
2023-01-25T10:53:05.299Z,43.80
2023-01-25T10:55:31.645Z,43.88
2023-01-25T10:57:58.064Z,43.84
2023-01-25T11:00:29.239Z,43.87
2023-01-25T11:02:56.701Z,43.77
2023-01-25T11:05:36.038Z,43.82
2023-01-25T11:08:21.165Z,44.06
2023-01-25T11:10:47.487Z,44.08
2023-01-25T11:13:13.757Z,43.92
2023-01-25T11:15:40.560Z,43.96
2023-01-25T11:18:07.290Z,43.62
2023-01-25T11:20:33.676Z,43.15
2023-01-25T11:23:00.019Z,43.27
2023-01-25T11:25:27.383Z,43.32
2023-01-25T11:28:09.523Z,43.19
2023-01-25T11:30:35.886Z,43.31
2023-01-25T11:33:02.228Z,43.50
2023-01-25T11:35:31.879Z,43.78
2023-01-25T11:38:08.622Z,43.78
2023-01-25T11:40:38.522Z,43.73
2023-01-25T11:43:23.858Z,43.82
2023-01-25T11:45:53.189Z,43.27
2023-01-25T11:48:19.483Z,43.94
2023-01-25T11:50:47.358Z,44.07
2023-01-25T11:53:23.873Z,44.28
2023-01-25T11:55:54.464Z,44.44
2023-01-25T11:58:36.284Z,44.25
2023-01-25T12:01:11.128Z,44.08
2023-01-25T12:03:37.437Z,44.07
2023-01-25T12:06:17.770Z,43.69
2023-01-25T12:09:02.621Z,43.94
2023-01-25T12:11:35.060Z,43.76
2023-01-25T12:14:05.520Z,43.79
2023-01-25T12:16:44.702Z,43.68
2023-01-25T12:19:29.847Z,43.76
2023-01-25T12:22:14.713Z,43.60
2023-01-25T12:24:52.142Z,43.60
2023-01-25T12:27:44.858Z,43.47
2023-01-25T12:30:11.574Z,43.32
2023-01-25T12:32:39.527Z,43.38
2023-01-25T12:35:24.756Z,43.64
2023-01-25T12:37:51.270Z,44.26
2023-01-25T12:40:18.695Z,43.93
2023-01-25T12:42:47.821Z,43.90
2023-01-25T12:45:18.793Z,44.24
2023-01-25T12:47:49.600Z,44.34
2023-01-25T12:50:15.846Z,44.17
2023-01-25T12:53:02.411Z,44.19
2023-01-25T12:55:28.768Z,44.16
2023-01-25T12:58:11.478Z,44.19
2023-01-25T13:00:51.952Z,44.17
2023-01-25T13:03:33.701Z,44.38
2023-01-25T13:06:03.008Z,43.70
2023-01-25T13:08:37.511Z,43.99
2023-01-25T13:11:07.963Z,44.01
2023-01-25T13:13:34.699Z,44.02
2023-01-25T13:16:21.026Z,44.02
2023-01-25T13:18:47.384Z,43.74
2023-01-25T13:21:33.570Z,43.67
2023-01-25T13:24:18.810Z,43.72
2023-01-25T13:26:54.112Z,43.50
2023-01-25T13:29:35.673Z,43.48
2023-01-25T13:32:02.458Z,43.40
2023-01-25T13:34:35.664Z,43.66
2023-01-25T13:37:20.770Z,43.53
2023-01-25T13:39:56.521Z,43.34
2023-01-25T13:42:23.827Z,43.36
2023-01-25T13:44:51.871Z,43.53
2023-01-25T13:47:44.762Z,43.52
2023-01-25T13:50:14.115Z,43.73
2023-01-25T13:52:41.663Z,43.60
2023-01-25T13:55:16.617Z,43.64
2023-01-25T13:57:42.993Z,43.75
2023-01-25T14:00:14.537Z,43.75
2023-01-25T14:02:41.951Z,43.51
2023-01-25T14:05:24.514Z,44.07
2023-01-25T14:07:51.387Z,43.98
2023-01-25T14:10:23.588Z,44.41
2023-01-25T14:12:50.637Z,44.34
2023-01-25T14:15:21.429Z,44.31
2023-01-25T14:18:03.906Z,44.31
2023-01-25T14:20:30.307Z,44.60
2023-01-25T14:22:56.666Z,44.49
2023-01-25T14:25:25.449Z,44.77
2023-01-25T14:27:53.129Z,44.44
2023-01-25T14:30:20.889Z,44.51
2023-01-25T14:32:47.419Z,44.16
2023-01-25T14:35:36.058Z,44.20
2023-01-25T14:38:23.287Z,43.90
2023-01-25T14:40:49.781Z,43.93
2023-01-25T14:43:16.476Z,44.20
2023-01-25T14:45:42.836Z,44.38
2023-01-25T14:48:28.096Z,44.73
2023-01-25T14:51:01.591Z,44.76
2023-01-25T14:53:27.937Z,44.89
2023-01-25T14:55:54.258Z,45.00
2023-01-25T14:58:21.480Z,45.03
2023-01-25T15:00:54.034Z,44.93
2023-01-25T15:03:22.409Z,45.13
2023-01-25T15:05:48.741Z,45.31
2023-01-25T15:08:15.922Z,45.26
2023-01-25T15:10:52.040Z,45.40
2023-01-25T15:13:22.401Z,45.03
2023-01-25T15:15:57.698Z,45.22
2023-01-25T15:18:40.472Z,45.03
2023-01-25T15:21:13.438Z,44.77
2023-01-25T15:23:46.096Z,44.74
2023-01-25T15:26:36.481Z,44.42
2023-01-25T15:29:15.136Z,44.85
2023-01-25T15:31:41.674Z,44.42
2023-01-25T15:34:13.372Z,44.46
2023-01-25T15:36:39.773Z,43.75
2023-01-25T15:39:06.875Z,43.77
2023-01-25T15:41:33.244Z,44.20
2023-01-25T15:44:01.332Z,43.71
2023-01-25T15:46:27.968Z,43.94
2023-01-25T15:48:54.284Z,43.47
2023-01-25T15:51:20.665Z,43.42
2023-01-25T15:53:47.162Z,43.05
2023-01-25T15:56:14.808Z,43.08
2023-01-25T15:58:41.983Z,43.03
2023-01-25T16:01:08.381Z,43.33
2023-01-25T16:03:34.727Z,43.53
2023-01-25T16:06:01.793Z,43.80
2023-01-25T16:08:28.193Z,43.53
2023-01-25T16:10:54.529Z,43.70
2023-01-25T16:13:22.092Z,43.85
2023-01-25T16:15:48.922Z,43.80
2023-01-25T16:18:15.260Z,43.68
2023-01-25T16:20:41.653Z,43.62
2023-01-25T16:23:08.429Z,44.00
2023-01-25T16:25:34.786Z,44.10
2023-01-25T16:28:01.120Z,44.13
2023-01-25T16:30:29.208Z,43.65
2023-01-25T16:32:55.608Z,43.72
2023-01-25T16:35:21.931Z,43.52
2023-01-25T16:37:48.272Z,43.86
2023-01-25T16:40:24.581Z,43.75
2023-01-25T16:42:51.032Z,43.81
2023-01-25T16:45:19.276Z,43.64
2023-01-25T16:47:46.604Z,43.49
2023-01-25T16:50:13.649Z,43.38
2023-01-25T16:52:43.443Z,43.80
2023-01-25T16:55:11.078Z,43.88
2023-01-25T16:57:37.882Z,43.88
2023-01-25T17:00:05.270Z,43.97
2023-01-25T17:02:31.596Z,44.05
2023-01-25T17:04:57.948Z,44.38
2023-01-25T17:07:24.271Z,44.08
2023-01-25T17:09:50.608Z,44.27
2023-01-25T17:12:16.927Z,44.11
2023-01-25T17:14:43.350Z,44.16
2023-01-25T17:17:09.674Z,44.06
2023-01-25T17:19:36.025Z,43.89
2023-01-25T17:22:03.277Z,43.96
2023-01-25T17:24:29.613Z,44.39
2023-01-25T17:26:56.036Z,44.59
2023-01-25T17:29:22.634Z,44.00
2023-01-25T17:31:49.022Z,44.08
2023-01-25T17:34:18.081Z,44.30
2023-01-25T17:36:44.469Z,44.21
2023-01-25T17:39:11.204Z,44.32
2023-01-25T17:41:37.527Z,44.41
2023-01-25T17:44:03.863Z,44.41
2023-01-25T17:46:32.984Z,44.46
2023-01-25T17:49:01.906Z,44.27
2023-01-25T17:51:28.303Z,44.17
2023-01-25T17:53:54.677Z,44.34
2023-01-25T17:56:21.043Z,44.26
2023-01-25T17:58:47.403Z,44.20
2023-01-25T18:01:17.936Z,44.46
2023-01-25T18:03:44.507Z,44.36
2023-01-25T18:06:11.267Z,44.46
2023-01-25T18:08:40.845Z,44.45
2023-01-25T18:11:10.725Z,44.31
2023-01-25T18:13:40.741Z,44.27
2023-01-25T18:16:07.511Z,44.41
2023-01-25T18:18:33.866Z,44.17
2023-01-25T18:21:13.081Z,44.45
2023-01-25T18:23:39.465Z,44.51
2023-01-25T18:26:06.457Z,44.41
2023-01-25T18:28:32.787Z,44.42
2023-01-25T18:30:59.693Z,44.50
2023-01-25T18:33:26.282Z,44.47
2023-01-25T18:35:53.896Z,44.32
2023-01-25T18:38:20.321Z,44.33
2023-01-25T18:40:46.865Z,44.16
2023-01-25T18:43:17.016Z,44.48
2023-01-25T18:45:43.552Z,44.43
2023-01-25T18:48:13.116Z,44.37
2023-01-25T18:50:39.975Z,44.49
2023-01-25T18:53:07.192Z,44.37
2023-01-25T18:55:33.521Z,44.46
2023-01-25T18:58:04.022Z,44.40
2023-01-25T19:00:33.629Z,44.22
2023-01-25T19:03:00.252Z,44.42
2023-01-25T19:05:26.657Z,44.43
2023-01-25T19:07:52.980Z,44.47
2023-01-25T19:10:19.329Z,44.44
2023-01-25T19:12:45.667Z,44.32
2023-01-25T19:15:12.099Z,44.47
2023-01-25T19:17:38.570Z,44.27
2023-01-25T19:20:05.251Z,44.25
2023-01-25T19:22:31.634Z,44.31
2023-01-25T19:24:57.970Z,44.18
2023-01-25T19:27:24.538Z,44.21
2023-01-25T19:29:51.455Z,44.28
2023-01-25T19:32:17.783Z,44.44
2023-01-25T19:34:44.109Z,43.87
2023-01-25T19:37:10.437Z,44.22
2023-01-25T19:39:37.018Z,43.56
2023-01-25T19:42:03.376Z,43.73
2023-01-25T19:44:29.706Z,43.73
2023-01-25T19:46:56.028Z,44.05
2023-01-25T19:49:22.407Z,44.04
2023-01-25T19:51:52.867Z,43.93
2023-01-25T19:54:19.566Z,44.17
2023-01-25T19:56:46.479Z,44.27
2023-01-25T19:59:15.551Z,44.05
2023-01-25T20:01:43.894Z,44.16
2023-01-25T20:04:13.891Z,44.28
2023-01-25T20:06:40.257Z,44.24
2023-01-25T20:09:06.580Z,44.45
2023-01-25T20:11:32.950Z,44.76
2023-01-25T20:14:00.000Z,45.08
2023-01-25T20:16:27.262Z,44.93
2023-01-25T20:18:53.621Z,44.79
2023-01-25T20:21:20.535Z,44.98
2023-01-25T20:23:47.593Z,45.03
2023-01-25T20:26:17.721Z,44.70
2023-01-25T20:28:44.400Z,44.59
2023-01-25T20:31:26.152Z,44.75
2023-01-25T20:33:53.107Z,44.87
2023-01-25T20:36:19.445Z,45.26
2023-01-25T20:38:45.927Z,45.17
2023-01-25T20:41:15.957Z,44.90
2023-01-25T20:43:46.015Z,44.76
2023-01-25T20:46:12.390Z,45.02
2023-01-25T20:48:38.729Z,44.69
2023-01-25T20:51:05.779Z,44.78
2023-01-25T20:53:33.087Z,44.91
2023-01-25T20:55:59.992Z,44.80
2023-01-25T20:58:26.637Z,44.88
2023-01-25T21:00:52.996Z,44.64
2023-01-25T21:03:19.382Z,44.78
2023-01-25T21:05:49.419Z,44.90
2023-01-25T21:08:15.740Z,44.64
2023-01-25T21:10:46.430Z,44.52
2023-01-25T21:13:12.758Z,44.78
2023-01-25T21:15:39.147Z,44.51
2023-01-25T21:18:05.516Z,44.55
2023-01-25T21:20:31.844Z,44.77
2023-01-25T21:22:58.216Z,44.77
2023-01-25T21:25:24.533Z,44.75
2023-01-25T21:27:50.896Z,44.81
2023-01-25T21:30:17.347Z,44.74
2023-01-25T21:32:44.111Z,44.66
2023-01-25T21:35:10.714Z,44.84
2023-01-25T21:37:37.190Z,44.66
2023-01-25T21:40:03.516Z,44.69
2023-01-25T21:42:32.205Z,44.83
2023-01-25T21:45:17.520Z,44.61
2023-01-25T21:47:43.852Z,44.73
2023-01-25T21:50:29.206Z,44.77
2023-01-25T21:52:55.572Z,44.75
2023-01-25T21:55:21.906Z,44.78
2023-01-25T21:57:48.916Z,44.77
2023-01-25T22:00:16.168Z,44.53
2023-01-25T22:02:42.965Z,44.70
2023-01-25T22:05:09.332Z,44.62
2023-01-25T22:07:35.673Z,44.53
2023-01-25T22:10:02.008Z,44.65
2023-01-25T22:12:28.347Z,44.66
2023-01-25T22:14:54.723Z,44.67
2023-01-25T22:17:22.510Z,45.06
2023-01-25T22:19:48.859Z,44.90
2023-01-25T22:22:15.232Z,45.01
2023-01-25T22:24:41.576Z,44.73
2023-01-25T22:27:07.845Z,44.90
2023-01-25T22:29:34.193Z,44.97
2023-01-25T22:32:00.542Z,44.91
2023-01-25T22:34:26.881Z,44.88
2023-01-25T22:36:53.297Z,45.05
2023-01-25T22:39:19.623Z,45.14
2023-01-25T22:41:45.955Z,44.98
2023-01-25T22:44:14.416Z,44.96
2023-01-25T22:46:40.791Z,45.02
2023-01-25T22:49:07.617Z,45.07
2023-01-25T22:51:33.941Z,45.04
2023-01-25T22:54:00.288Z,44.90
2023-01-25T22:56:31.727Z,45.16
2023-01-25T22:58:58.186Z,44.87
2023-01-25T23:01:25.267Z,44.75
2023-01-25T23:03:51.592Z,44.98
2023-01-25T23:06:19.003Z,45.08
2023-01-25T23:08:45.332Z,44.82
2023-01-25T23:11:12.627Z,44.93
2023-01-25T23:13:39.871Z,44.84
2023-01-25T23:16:06.911Z,44.98
2023-01-25T23:18:51.450Z,45.04
2023-01-25T23:21:18.523Z,44.89
2023-01-25T23:23:44.878Z,44.86
2023-01-25T23:26:11.206Z,44.88
2023-01-25T23:28:37.611Z,44.87
2023-01-25T23:31:17.186Z,44.79
2023-01-25T23:33:59.505Z,44.90
2023-01-25T23:36:26.507Z,44.89
2023-01-25T23:38:52.823Z,45.01
2023-01-25T23:41:19.371Z,44.97
2023-01-25T23:43:45.701Z,45.10
2023-01-25T23:46:14.187Z,44.97
2023-01-25T23:48:40.917Z,45.05
2023-01-25T23:51:07.263Z,44.97
2023-01-25T23:53:33.607Z,45.02
2023-01-25T23:56:05.906Z,45.12
2023-01-25T23:58:32.818Z,45.10
